Airfield :
LOGIN :

Register | Disclaimer

   EN    FR    IT 

 










Legend :    VFR   Marginal VFR   IFR   Intensive IFR   Very Intensive IFR
Visi :
Ceiling :
>= 8 km
>= 3000ft
5 to 8 km
1000 to 3000 ft
1500m to 5 km
500 to 1000 ft
800 to 1500m
200 to 500 ft
< 800m
< 200 ft
Symbols :   Thunderstorms  Fog  Heavy snow  Heavy precipitations  Wind > 20 kt
SIGMETs :     Misc.  Thunderstorms  Icing  Turbulence  Mountain Waves  Volcanic Ashes







- Airport Elevation : 1411 ft
- IATA code : SZG


LOWS - Salzburg

CURRENT METAR :
  • 191820Z 16006KT 9999 -RA FEW004 BKN090 15/14 Q1022 NOSIG

EXPIRED METARs :
  • 191750Z 14005KT 9999 RA FEW004 BKN080 15/14 Q1021 TEMPO -RA
  • 191720Z 16007KT 9999 -RA FEW003 BKN090 15/14 Q1021 NOSIG
  • 191650Z 18005KT 9999 -SHRA FEW004 BKN080 15/14 Q1021 RERA NOSIG
  • 191620Z 17004KT 9999 -SHRA FEW005 BKN080 16/15 Q1021 NOSIG
  • 191550Z 16004KT 9999 -RA FEW007 SCT070 BKN090 15/14 Q1021 NOSIG

TAF TAF LOWS
Valid from the 19 at 18:00 until the 20 at 18:00 UTC


191715Z 1918/2018 15005KT 9999 FEW010 BKN080 TX18/2012Z TN12/2005Z
TEMPO 1918/1924 32006KT 6000 SHRA SCT040TCU BKN050
TEMPO 2000/2006 -SHRA
BECMG 2006/2008 32007KT SCT050 SCT080
No reported NOTAMs for that airfield.
3 SIGMETs reported for the Wien FIR (LOVV) :
 
Severe icing
LOVV SIGMET 13 VALID 191820/192000 LOWW
LOVV WIEN FIR SEV ICE FCST AT 1820Z WI N4815 E01555 - N4730 E01555 - N4700 E01255 - N4755 E01315 - N4815 E01555 FL120/200 MOV E NC=
Embedded thunderstorms
LOVV SIGMET 12 VALID 191800/192000 LOWW
LOVV WIEN FIR EMBD TS OBS AT 1800Z WI N4655 E01215 - N4725 E01510 - N4630 E01445 - N4630 E01220 - N4655 E01215 TOP FL380 MOV E NC=
Severe turbulence
LOVV SIGMET 11 VALID 191730/192000 LOWW
LOVV WIEN FIR SEV TURB FCST WI N4845 E01350 - N4900 E01505 - N4845 E01600 - N4640 E01340 - N4710 E01210 - N4845 E01350 FL340/400 STNR NC=



MET'MAP, your aeronautical weather chart ! - Copyright ORBIFLY December 2007 - Disclaimer

ORBIFLY MET'MAP TEAM :

Programming & Development : Alexandra Zaïnal
Concept & Development : Baudouin d'Aumeries
Co-Development & Prog : Marc-Olivier Méhu
Technical & hardware support : Manuel Goepfert

Contact : metmap@orbifly.com




SOURCES & CREDITS :

   NOAA